Terminal Aerodrome Forecast
Issued by NWS

Home | Current Version | Previous Version | Text Only | Print | Product List | Glossary On
Versions: 1 2 3 4 5 6 7 8 9 10 11 12 13
881
FTUS46 KLOX 241751
TAFVNY
TAF
KVNY 241751Z 2418/2518 VRB03KT P6SM SCT250
     FM242300 14006KT P6SM SCT250
     FM250300 VRB03KT P6SM SCT250=

USA.gov is the U.S. government's official web portal to all federal, state and local government web resources and services.